createdAt,value
2022-12-12T00:00:50.546Z,85.55
2022-12-12T00:01:55.931Z,84.73
2022-12-12T00:02:50.704Z,84.52
2022-12-12T00:03:50.646Z,84.66
2022-12-12T00:04:50.596Z,85.19
2022-12-12T00:05:50.482Z,85.66
2022-12-12T00:06:50.478Z,86.09
2022-12-12T00:07:50.537Z,86.94
2022-12-12T00:08:50.450Z,87.76
2022-12-12T00:09:50.482Z,88.18
2022-12-12T00:10:50.421Z,87.93
2022-12-12T00:11:50.402Z,87.51
2022-12-12T00:12:50.392Z,86.69
2022-12-12T00:13:50.385Z,86.16
2022-12-12T00:14:50.372Z,86.26
2022-12-12T00:15:50.392Z,86.26
2022-12-12T00:16:50.336Z,86.47
2022-12-12T00:17:50.332Z,86.26
2022-12-12T00:18:50.340Z,86.47
2022-12-12T00:19:50.328Z,86.90
2022-12-12T00:20:50.297Z,86.80
2022-12-12T00:21:50.274Z,86.80
2022-12-12T00:22:50.263Z,86.65
2022-12-12T00:23:50.247Z,86.11
2022-12-12T00:24:50.245Z,86.01
2022-12-12T00:25:50.232Z,85.80
2022-12-12T00:26:50.217Z,85.80
2022-12-12T00:27:50.201Z,85.41
2022-12-12T00:28:50.188Z,85.30
2022-12-12T00:29:50.166Z,85.73
2022-12-12T00:30:50.233Z,86.16
2022-12-12T00:31:50.147Z,86.16
2022-12-12T00:32:50.129Z,86.30
2022-12-12T00:33:50.209Z,86.62
2022-12-12T00:34:50.137Z,86.41
2022-12-12T00:35:50.097Z,86.26
2022-12-12T00:36:50.086Z,86.09
2022-12-12T00:37:50.069Z,86.16
2022-12-12T00:38:50.057Z,86.16
2022-12-12T00:39:50.048Z,85.88
2022-12-12T00:40:50.035Z,85.55
2022-12-12T00:41:50.017Z,85.45
2022-12-12T00:42:50.006Z,85.55
2022-12-12T00:43:49.995Z,85.98
2022-12-12T00:44:50.027Z,86.47
2022-12-12T00:45:49.959Z,86.37
2022-12-12T00:46:50.009Z,86.37
2022-12-12T00:47:49.940Z,85.83
2022-12-12T00:48:49.918Z,85.41
2022-12-12T00:49:49.913Z,84.91
2022-12-12T00:50:49.928Z,84.70
2022-12-12T00:51:49.887Z,84.95
2022-12-12T00:52:49.868Z,85.31
2022-12-12T00:53:49.861Z,85.63
2022-12-12T00:54:49.845Z,86.10
2022-12-12T00:55:49.837Z,86.63
2022-12-12T00:56:49.819Z,87.16
2022-12-12T00:57:49.804Z,87.81
2022-12-12T00:58:49.790Z,88.41
2022-12-12T00:59:49.778Z,89.05
2022-12-12T01:00:49.766Z,88.69
2022-12-12T01:01:49.792Z,88.48
2022-12-12T01:02:49.796Z,88.23
2022-12-12T01:03:49.729Z,87.37
2022-12-12T01:04:49.826Z,86.55
2022-12-12T01:05:49.708Z,86.34
2022-12-12T01:06:49.716Z,86.52
2022-12-12T01:07:49.733Z,86.41
2022-12-12T01:08:49.669Z,86.62
2022-12-12T01:09:49.672Z,86.30
2022-12-12T01:10:49.637Z,85.66
2022-12-12T01:11:49.626Z,85.34
2022-12-12T01:12:49.611Z,85.02
2022-12-12T01:13:49.603Z,85.24
2022-12-12T01:14:49.679Z,85.27
2022-12-12T01:15:49.623Z,85.55
2022-12-12T01:16:49.571Z,85.24
2022-12-12T01:17:49.556Z,84.84
2022-12-12T01:18:49.534Z,84.63
2022-12-12T01:19:49.630Z,85.10
2022-12-12T01:20:49.511Z,85.95
2022-12-12T01:21:49.496Z,86.27
2022-12-12T01:22:49.514Z,86.44
2022-12-12T01:23:49.482Z,86.77
2022-12-12T01:24:49.457Z,86.66
2022-12-12T01:25:49.453Z,86.62
2022-12-12T01:26:49.440Z,86.30
2022-12-12T01:27:49.424Z,85.98
2022-12-12T01:28:49.414Z,85.77
2022-12-12T01:29:49.392Z,85.45
2022-12-12T01:30:49.381Z,85.27
2022-12-12T01:31:49.402Z,85.16
2022-12-12T01:32:49.354Z,85.16
2022-12-12T01:33:49.345Z,85.27
2022-12-12T01:34:49.329Z,85.63
2022-12-12T01:35:49.319Z,85.74
2022-12-12T01:36:49.303Z,86.02
2022-12-12T01:37:49.290Z,86.55
2022-12-12T01:38:49.307Z,86.77
2022-12-12T01:39:49.274Z,86.34
2022-12-12T01:40:49.252Z,86.34
2022-12-12T01:41:49.246Z,86.09
2022-12-12T01:42:49.239Z,85.88
2022-12-12T01:43:49.224Z,85.34
2022-12-12T01:44:49.210Z,85.13
2022-12-12T01:45:49.194Z,84.91
2022-12-12T01:46:49.297Z,84.95
2022-12-12T01:47:49.165Z,84.95
2022-12-12T01:48:49.163Z,85.16
2022-12-12T01:49:49.155Z,85.27
2022-12-12T01:50:49.133Z,85.20
2022-12-12T01:51:49.113Z,85.20
2022-12-12T01:52:49.107Z,85.56
2022-12-12T01:53:49.094Z,85.95
2022-12-12T01:54:49.111Z,86.41
2022-12-12T01:55:49.069Z,86.41
2022-12-12T01:56:49.064Z,86.41
2022-12-12T01:57:49.042Z,86.31
2022-12-12T01:58:49.036Z,86.20
2022-12-12T01:59:49.021Z,86.20
2022-12-12T02:00:49.054Z,86.20
2022-12-12T02:01:49.017Z,86.20
2022-12-12T02:02:48.976Z,86.52
2022-12-12T02:03:48.959Z,86.31
2022-12-12T02:04:49.020Z,85.88
2022-12-12T02:05:48.936Z,85.67
2022-12-12T02:06:48.930Z,85.67
2022-12-12T02:07:48.961Z,85.82
2022-12-12T02:08:48.902Z,86.13
2022-12-12T02:09:48.886Z,86.46
2022-12-12T02:10:48.903Z,86.77
2022-12-12T02:11:48.889Z,87.10
2022-12-12T02:12:48.855Z,87.74
2022-12-12T02:13:48.846Z,87.92
2022-12-12T02:14:48.820Z,87.70
2022-12-12T02:15:48.869Z,87.45
2022-12-12T02:16:48.800Z,87.55
2022-12-12T02:17:48.784Z,87.23
2022-12-12T02:18:48.773Z,86.38
2022-12-12T02:19:48.768Z,85.95
2022-12-12T02:20:48.753Z,86.16
2022-12-12T02:21:48.740Z,86.23
2022-12-12T02:22:48.722Z,85.41
2022-12-12T02:23:48.719Z,84.99
2022-12-12T02:24:48.702Z,85.10
2022-12-12T02:25:48.691Z,84.99
2022-12-12T02:26:48.693Z,85.24
2022-12-12T02:27:48.656Z,85.74
2022-12-12T02:28:48.656Z,85.63
2022-12-12T02:29:48.643Z,85.52
2022-12-12T02:30:48.628Z,85.31
2022-12-12T02:31:48.689Z,85.20
2022-12-12T02:32:48.600Z,85.20
2022-12-12T02:33:48.588Z,85.10
2022-12-12T02:34:48.575Z,85.31
2022-12-12T02:35:48.567Z,85.41
2022-12-12T02:36:48.552Z,85.49
2022-12-12T02:37:48.533Z,85.52
2022-12-12T02:38:48.517Z,84.95
2022-12-12T02:39:48.503Z,84.34
2022-12-12T02:40:48.499Z,84.45
2022-12-12T02:41:48.478Z,84.77
2022-12-12T02:42:48.492Z,84.45
2022-12-12T02:43:48.463Z,84.13
2022-12-12T02:44:48.466Z,84.17
2022-12-12T02:45:48.434Z,84.60
2022-12-12T02:46:48.557Z,85.56
2022-12-12T02:47:48.414Z,86.10
2022-12-12T02:48:48.392Z,86.20
2022-12-12T02:49:48.448Z,85.99
2022-12-12T02:50:48.374Z,85.56
2022-12-12T02:51:48.354Z,85.38
2022-12-12T02:52:48.346Z,85.56
2022-12-12T02:53:48.336Z,86.10
2022-12-12T02:54:48.324Z,85.56
2022-12-12T02:55:48.312Z,84.92
2022-12-12T02:56:48.293Z,84.74
2022-12-12T02:57:48.283Z,84.85
2022-12-12T02:58:48.324Z,85.17
2022-12-12T02:59:48.266Z,85.60
2022-12-12T03:00:48.283Z,85.92
2022-12-12T03:01:48.292Z,86.07
2022-12-12T03:02:48.214Z,86.24
2022-12-12T03:03:48.202Z,85.85
2022-12-12T03:04:48.197Z,85.64
2022-12-12T03:05:48.174Z,85.85
2022-12-12T03:06:48.169Z,86.28
2022-12-12T03:07:48.290Z,86.82
2022-12-12T03:08:48.144Z,86.99
2022-12-12T03:09:48.128Z,87.10
2022-12-12T03:10:48.118Z,86.85
2022-12-12T03:11:48.107Z,86.31
2022-12-12T03:12:48.094Z,85.56
2022-12-12T03:13:48.074Z,85.03
2022-12-12T03:14:48.094Z,85.03
2022-12-12T03:15:48.055Z,84.92
2022-12-12T03:16:48.041Z,84.70
2022-12-12T03:17:48.026Z,84.81
2022-12-12T03:18:48.009Z,84.28
2022-12-12T03:19:47.995Z,84.17
2022-12-12T03:20:47.983Z,84.06
2022-12-12T03:21:47.978Z,84.06
2022-12-12T03:22:47.953Z,84.06
2022-12-12T03:23:47.950Z,84.28
2022-12-12T03:24:47.933Z,84.28
2022-12-12T03:25:47.926Z,84.60
2022-12-12T03:26:47.902Z,84.60
2022-12-12T03:27:47.900Z,84.28
2022-12-12T03:28:47.887Z,84.38
2022-12-12T03:29:47.871Z,84.49
2022-12-12T03:30:47.894Z,84.06
2022-12-12T03:31:47.916Z,83.85
2022-12-12T03:32:47.831Z,83.95
2022-12-12T03:33:47.822Z,83.95
2022-12-12T03:34:47.800Z,84.06
2022-12-12T03:35:47.792Z,83.95
2022-12-12T03:36:47.784Z,84.06
2022-12-12T03:37:47.764Z,83.78
2022-12-12T03:38:47.748Z,83.56
2022-12-12T03:39:47.746Z,83.71
2022-12-12T03:40:47.737Z,84.03
2022-12-12T03:41:47.713Z,84.50
2022-12-12T03:42:47.704Z,85.03
2022-12-12T03:43:47.697Z,85.50
2022-12-12T03:44:47.678Z,86.14
2022-12-12T03:45:47.691Z,86.85
2022-12-12T03:46:47.680Z,87.07
2022-12-12T03:47:47.633Z,86.85
2022-12-12T03:48:47.633Z,86.53
2022-12-12T03:49:47.605Z,86.53
2022-12-12T03:50:47.617Z,86.21
2022-12-12T03:51:47.585Z,85.78
2022-12-12T03:52:47.573Z,86.17
2022-12-12T03:53:47.561Z,86.71
2022-12-12T03:54:47.566Z,86.39
2022-12-12T03:55:47.539Z,86.07
2022-12-12T03:56:47.526Z,85.85
2022-12-12T03:57:47.511Z,85.85
2022-12-12T03:58:47.490Z,85.82
2022-12-12T03:59:47.485Z,85.49
2022-12-12T04:00:47.518Z,85.17
2022-12-12T04:01:47.455Z,84.53
2022-12-12T04:02:47.467Z,84.10
2022-12-12T04:03:47.423Z,84.21
2022-12-12T04:04:47.414Z,84.10
2022-12-12T04:05:47.409Z,84.31
2022-12-12T04:06:47.399Z,84.31
2022-12-12T04:07:47.426Z,83.89
2022-12-12T04:08:47.361Z,83.92
2022-12-12T04:09:47.350Z,83.92
2022-12-12T04:10:47.341Z,84.46
2022-12-12T04:11:47.322Z,84.85
2022-12-12T04:12:47.313Z,84.64
2022-12-12T04:13:47.299Z,83.92
2022-12-12T04:14:47.285Z,83.61
2022-12-12T04:15:47.267Z,83.82
2022-12-12T04:16:47.355Z,84.67
2022-12-12T04:17:47.244Z,84.89
2022-12-12T04:18:47.276Z,84.67
2022-12-12T04:19:47.281Z,84.56
2022-12-12T04:20:47.212Z,84.46
2022-12-12T04:21:47.191Z,84.67
2022-12-12T04:22:47.177Z,84.78
2022-12-12T04:23:47.164Z,84.53
2022-12-12T04:24:47.161Z,83.92
2022-12-12T04:25:47.142Z,83.82
2022-12-12T04:26:47.132Z,83.71
2022-12-12T04:27:47.119Z,83.71
2022-12-12T04:28:47.110Z,83.39
2022-12-12T04:29:47.088Z,83.61
2022-12-12T04:30:47.075Z,83.92
2022-12-12T04:31:47.180Z,84.03
2022-12-12T04:32:47.057Z,84.25
2022-12-12T04:33:47.044Z,83.82
2022-12-12T04:34:47.057Z,83.71
2022-12-12T04:35:47.021Z,83.86
2022-12-12T04:36:47.003Z,83.96
2022-12-12T04:37:46.987Z,84.28
2022-12-12T04:38:46.968Z,84.92
2022-12-12T04:39:46.966Z,85.46
2022-12-12T04:40:46.948Z,85.68
2022-12-12T04:41:46.936Z,86.07
2022-12-12T04:42:46.923Z,85.42
2022-12-12T04:43:46.903Z,84.28
2022-12-12T04:44:46.892Z,83.86
2022-12-12T04:45:46.946Z,83.96
2022-12-12T04:46:46.876Z,84.61
2022-12-12T04:47:46.858Z,84.86
2022-12-12T04:48:46.840Z,85.39
2022-12-12T04:49:46.837Z,85.71
2022-12-12T04:50:46.840Z,86.25
2022-12-12T04:51:46.810Z,86.46
2022-12-12T04:52:46.791Z,86.25
2022-12-12T04:53:46.774Z,85.82
2022-12-12T04:54:46.762Z,86.04
2022-12-12T04:55:46.749Z,85.93
2022-12-12T04:56:46.743Z,86.10
2022-12-12T04:57:46.724Z,86.21
2022-12-12T04:58:46.711Z,85.89
2022-12-12T04:59:46.698Z,85.25
2022-12-12T05:00:46.709Z,84.61
2022-12-12T05:01:52.589Z,84.28
2022-12-12T05:02:47.753Z,84.07
2022-12-12T05:03:46.646Z,84.71
2022-12-12T05:04:46.642Z,84.82
2022-12-12T05:05:46.622Z,84.39
2022-12-12T05:06:46.640Z,84.07
2022-12-12T05:07:46.614Z,84.07
2022-12-12T05:08:46.590Z,84.39
2022-12-12T05:09:46.575Z,84.82
2022-12-12T05:10:46.563Z,84.78
2022-12-12T05:11:46.542Z,84.17
2022-12-12T05:12:46.537Z,84.28
2022-12-12T05:13:46.519Z,84.39
2022-12-12T05:14:46.503Z,84.71
2022-12-12T05:15:46.495Z,84.61
2022-12-12T05:16:46.518Z,84.61
2022-12-12T05:17:46.474Z,84.61
2022-12-12T05:18:46.448Z,84.61
2022-12-12T05:19:46.444Z,84.71
2022-12-12T05:20:46.432Z,84.64
2022-12-12T05:21:46.412Z,84.53
2022-12-12T05:22:46.433Z,84.53
2022-12-12T05:23:46.387Z,84.96
2022-12-12T05:24:46.384Z,85.28
2022-12-12T05:25:46.363Z,84.86
2022-12-12T05:26:46.352Z,84.32
2022-12-12T05:27:46.334Z,84.43
2022-12-12T05:28:46.322Z,84.43
2022-12-12T05:29:46.307Z,84.25
2022-12-12T05:30:46.353Z,84.47
2022-12-12T05:31:46.288Z,84.86
2022-12-12T05:32:46.270Z,84.75
2022-12-12T05:33:46.260Z,84.47
2022-12-12T05:34:46.248Z,84.36
2022-12-12T05:35:46.232Z,84.68
2022-12-12T05:36:46.221Z,85.00
2022-12-12T05:37:51.407Z,85.64
2022-12-12T05:38:46.220Z,86.04
2022-12-12T05:39:46.188Z,85.71
2022-12-12T05:40:46.177Z,85.32
2022-12-12T05:41:46.160Z,85.22
2022-12-12T05:42:46.140Z,85.14
2022-12-12T05:43:46.127Z,85.25
2022-12-12T05:44:46.133Z,85.47
2022-12-12T05:45:46.190Z,85.79
2022-12-12T05:46:46.102Z,86.43
2022-12-12T05:47:46.073Z,86.97
2022-12-12T05:48:46.062Z,87.36
2022-12-12T05:49:46.054Z,87.32
2022-12-12T05:50:46.035Z,86.89
2022-12-12T05:51:46.028Z,85.82
2022-12-12T05:52:46.011Z,84.89
2022-12-12T05:53:46.003Z,84.57
2022-12-12T05:54:46.010Z,84.47
2022-12-12T05:55:45.971Z,84.57
2022-12-12T05:56:45.959Z,84.57
2022-12-12T05:57:45.950Z,84.78
2022-12-12T05:58:45.932Z,84.93
2022-12-12T05:59:45.928Z,85.04
2022-12-12T06:00:45.922Z,85.36
2022-12-12T06:01:45.899Z,85.79
2022-12-12T06:02:45.951Z,85.47
2022-12-12T06:03:45.900Z,85.36
2022-12-12T06:04:45.857Z,85.14
2022-12-12T06:05:45.848Z,85.36
2022-12-12T06:06:45.836Z,85.79
2022-12-12T06:07:45.907Z,85.89
2022-12-12T06:08:45.808Z,86.18
2022-12-12T06:09:45.789Z,86.00
2022-12-12T06:10:45.814Z,86.07
2022-12-12T06:11:45.771Z,85.86
2022-12-12T06:12:45.758Z,85.43
2022-12-12T06:13:45.735Z,85.22
2022-12-12T06:14:45.735Z,85.28
2022-12-12T06:15:45.768Z,85.17
2022-12-12T06:16:45.707Z,84.78
2022-12-12T06:17:45.692Z,84.47
2022-12-12T06:18:45.677Z,84.57
2022-12-12T06:19:45.658Z,84.57
2022-12-12T06:20:45.649Z,84.36
2022-12-12T06:21:45.649Z,84.78
2022-12-12T06:22:49.068Z,84.89
2022-12-12T06:23:46.645Z,85.07
2022-12-12T06:24:45.600Z,85.17
2022-12-12T06:25:45.588Z,84.53
2022-12-12T06:26:45.596Z,84.11
2022-12-12T06:27:45.573Z,84.00
2022-12-12T06:28:45.543Z,84.32
2022-12-12T06:29:45.538Z,84.53
2022-12-12T06:30:45.581Z,84.32
2022-12-12T06:31:45.510Z,83.93
2022-12-12T06:32:45.498Z,83.61
2022-12-12T06:33:45.479Z,83.72
2022-12-12T06:34:45.472Z,83.72
2022-12-12T06:35:45.458Z,83.82
2022-12-12T06:36:45.455Z,84.04
2022-12-12T06:37:45.437Z,84.14
2022-12-12T06:38:45.425Z,84.18
2022-12-12T06:39:45.404Z,83.97
2022-12-12T06:40:45.401Z,84.50
2022-12-12T06:41:45.372Z,85.22
2022-12-12T06:42:48.499Z,85.32
2022-12-12T06:43:45.355Z,85.22
2022-12-12T06:44:45.337Z,85.11
2022-12-12T06:45:45.333Z,85.00
2022-12-12T06:46:45.349Z,85.32
2022-12-12T06:47:45.299Z,85.71
2022-12-12T06:48:45.295Z,85.43
2022-12-12T06:49:45.276Z,85.28
2022-12-12T06:50:45.269Z,84.96
2022-12-12T06:51:45.247Z,84.75
2022-12-12T06:52:45.243Z,84.43
2022-12-12T06:53:45.224Z,84.11
2022-12-12T06:54:45.218Z,83.25
2022-12-12T06:55:45.197Z,82.82
2022-12-12T06:56:48.480Z,83.36
2022-12-12T06:57:45.170Z,84.00
2022-12-12T06:58:45.183Z,83.78
2022-12-12T06:59:45.155Z,83.07
2022-12-12T07:00:45.140Z,82.86
2022-12-12T07:01:45.288Z,82.97
2022-12-12T07:02:45.113Z,83.33
2022-12-12T07:03:45.096Z,83.64
2022-12-12T07:04:45.087Z,83.86
2022-12-12T07:05:45.076Z,84.72
2022-12-12T07:06:45.056Z,84.36
2022-12-12T07:07:45.050Z,84.25
2022-12-12T07:08:45.034Z,84.04
2022-12-12T07:09:45.017Z,83.82
2022-12-12T07:10:45.003Z,83.86
2022-12-12T07:11:44.997Z,83.97
2022-12-12T07:12:47.731Z,84.18
2022-12-12T07:13:44.973Z,84.18
2022-12-12T07:14:45.008Z,84.08
2022-12-12T07:15:44.982Z,84.08
2022-12-12T07:16:44.926Z,84.08
2022-12-12T07:17:44.913Z,84.29
2022-12-12T07:18:44.906Z,84.72
2022-12-12T07:19:44.895Z,84.72
2022-12-12T07:20:44.883Z,84.22
2022-12-12T07:21:44.864Z,83.97
2022-12-12T07:22:44.856Z,84.83
2022-12-12T07:23:44.848Z,85.25
2022-12-12T07:24:44.829Z,85.04
2022-12-12T07:25:44.819Z,84.93
2022-12-12T07:26:44.802Z,84.72
2022-12-12T07:27:44.788Z,84.57
2022-12-12T07:28:44.781Z,84.57
2022-12-12T07:29:44.762Z,84.57
2022-12-12T07:30:44.901Z,84.32
2022-12-12T07:31:44.733Z,84.11
2022-12-12T07:32:44.722Z,83.68
2022-12-12T07:33:45.030Z,83.25
2022-12-12T07:34:44.709Z,82.93
2022-12-12T07:35:44.694Z,82.82
2022-12-12T07:36:44.680Z,82.97
2022-12-12T07:37:44.663Z,83.07
2022-12-12T07:38:44.650Z,83.18
2022-12-12T07:39:44.640Z,83.50
2022-12-12T07:40:44.627Z,83.50
2022-12-12T07:41:44.610Z,83.89
2022-12-12T07:42:44.599Z,83.89
2022-12-12T07:43:45.151Z,83.64
2022-12-12T07:44:44.567Z,83.75
2022-12-12T07:45:44.552Z,83.64
2022-12-12T07:46:44.580Z,83.53
2022-12-12T07:47:44.534Z,83.28
2022-12-12T07:48:44.517Z,83.39
2022-12-12T07:49:44.510Z,83.71
2022-12-12T07:50:44.495Z,83.71
2022-12-12T07:51:48.994Z,83.71
2022-12-12T07:52:44.464Z,83.28
2022-12-12T07:53:44.454Z,83.07
2022-12-12T07:54:44.451Z,83.17
2022-12-12T07:55:44.438Z,83.43
2022-12-12T07:56:44.430Z,83.96
2022-12-12T07:57:44.394Z,84.39
2022-12-12T07:58:44.397Z,84.50
2022-12-12T07:59:44.373Z,84.50
2022-12-12T08:00:44.362Z,84.82
2022-12-12T08:01:44.396Z,85.25
2022-12-12T08:02:44.353Z,85.78
2022-12-12T08:03:44.322Z,86.10
2022-12-12T08:04:44.370Z,86.07
2022-12-12T08:05:44.301Z,86.17
2022-12-12T08:06:44.294Z,86.17
2022-12-12T08:07:44.274Z,85.96
2022-12-12T08:08:44.264Z,85.71
2022-12-12T08:09:44.248Z,85.71
2022-12-12T08:10:44.246Z,85.06
2022-12-12T08:11:46.699Z,84.95
2022-12-12T08:12:44.208Z,85.13
2022-12-12T08:13:44.208Z,85.20
2022-12-12T08:14:44.200Z,85.52
2022-12-12T08:15:44.220Z,85.91
2022-12-12T08:16:44.170Z,85.80
2022-12-12T08:17:44.145Z,85.55
2022-12-12T08:18:44.165Z,85.45
2022-12-12T08:19:44.126Z,85.24
2022-12-12T08:20:44.106Z,84.91
2022-12-12T08:21:44.092Z,84.77
2022-12-12T08:22:44.082Z,84.66
2022-12-12T08:23:44.071Z,84.34
2022-12-12T08:24:44.059Z,84.34
2022-12-12T08:25:44.042Z,84.77
2022-12-12T08:26:44.030Z,84.98
2022-12-12T08:27:44.028Z,85.16
2022-12-12T08:28:44.010Z,85.47
2022-12-12T08:29:43.990Z,85.47
2022-12-12T08:30:43.977Z,85.05
2022-12-12T08:31:44.096Z,84.63
2022-12-12T08:32:43.960Z,84.23
2022-12-12T08:33:43.941Z,84.48
2022-12-12T08:34:43.969Z,85.24
2022-12-12T08:35:43.915Z,85.77
2022-12-12T08:36:43.906Z,85.77
2022-12-12T08:37:43.890Z,86.13
2022-12-12T08:38:43.885Z,86.55
2022-12-12T08:39:43.858Z,87.19
2022-12-12T08:40:43.855Z,87.69
2022-12-12T08:41:43.833Z,88.01
2022-12-12T08:42:43.841Z,88.01
2022-12-12T08:43:43.828Z,87.76
2022-12-12T08:44:43.819Z,87.65
2022-12-12T08:45:43.784Z,87.65
2022-12-12T08:46:43.824Z,87.65
2022-12-12T08:47:43.760Z,87.76
2022-12-12T08:48:43.747Z,87.76
2022-12-12T08:49:43.742Z,87.82
2022-12-12T08:50:43.750Z,87.82
2022-12-12T08:51:43.711Z,87.82
2022-12-12T08:52:43.707Z,87.51
2022-12-12T08:53:43.705Z,87.29
2022-12-12T08:54:43.670Z,87.40
2022-12-12T08:55:43.662Z,87.36
2022-12-12T08:56:43.647Z,87.57
2022-12-12T08:57:43.636Z,87.46
2022-12-12T08:58:43.620Z,87.40
2022-12-12T08:59:43.605Z,87.82
2022-12-12T09:00:43.593Z,87.89
2022-12-12T09:01:43.769Z,88.10
2022-12-12T09:02:43.734Z,88.21
2022-12-12T09:03:43.557Z,88.39
2022-12-12T09:04:43.542Z,88.07
2022-12-12T09:05:43.529Z,87.74
2022-12-12T09:06:43.553Z,87.96
2022-12-12T09:07:43.511Z,87.92
2022-12-12T09:08:43.495Z,87.71
2022-12-12T09:09:43.482Z,87.60
2022-12-12T09:10:43.464Z,87.38
2022-12-12T09:11:43.457Z,86.92
2022-12-12T09:12:43.445Z,86.60
2022-12-12T09:13:43.426Z,86.71
2022-12-12T09:14:43.413Z,86.71
2022-12-12T09:15:43.407Z,86.60
2022-12-12T09:16:43.501Z,86.49
2022-12-12T09:17:43.379Z,86.35
2022-12-12T09:18:48.600Z,86.29
2022-12-12T09:19:44.385Z,86.18
2022-12-12T09:20:43.343Z,86.07
2022-12-12T09:21:43.333Z,86.29
2022-12-12T09:22:43.368Z,87.24
2022-12-12T09:23:43.298Z,87.66
2022-12-12T09:24:43.286Z,87.95
2022-12-12T09:25:43.280Z,87.77
2022-12-12T09:26:43.256Z,87.95
2022-12-12T09:27:43.250Z,88.06
2022-12-12T09:28:43.236Z,88.27
2022-12-12T09:29:43.231Z,88.27
2022-12-12T09:30:43.207Z,87.84
2022-12-12T09:31:43.246Z,87.41
2022-12-12T09:32:43.182Z,87.52
2022-12-12T09:33:43.234Z,87.84
2022-12-12T09:34:43.164Z,88.12
2022-12-12T09:35:43.158Z,88.55
2022-12-12T09:36:43.142Z,88.34
2022-12-12T09:37:43.136Z,87.48
2022-12-12T09:38:43.205Z,87.38
2022-12-12T09:39:43.096Z,87.38
2022-12-12T09:40:43.084Z,87.34
2022-12-12T09:41:43.065Z,87.45
2022-12-12T09:42:43.059Z,87.12
2022-12-12T09:43:43.047Z,86.91
2022-12-12T09:44:43.032Z,86.91
2022-12-12T09:45:43.111Z,87.27
2022-12-12T09:46:43.005Z,87.27
2022-12-12T09:47:42.985Z,87.59
2022-12-12T09:48:42.985Z,87.87
2022-12-12T09:49:44.007Z,88.08
2022-12-12T09:50:42.956Z,88.40
2022-12-12T09:51:42.935Z,88.51
2022-12-12T09:52:42.926Z,88.51
2022-12-12T09:53:42.909Z,88.68
2022-12-12T09:54:42.930Z,89.21
2022-12-12T09:55:42.889Z,89.70
2022-12-12T09:56:42.887Z,89.60
2022-12-12T09:57:42.864Z,89.49
2022-12-12T09:58:48.141Z,89.49
2022-12-12T09:59:43.871Z,88.96
2022-12-12T10:00:42.870Z,88.85
2022-12-12T10:01:42.887Z,88.64
2022-12-12T10:02:42.799Z,88.53
2022-12-12T10:03:42.793Z,88.75
2022-12-12T10:04:47.839Z,88.96
2022-12-12T10:05:43.799Z,89.28
2022-12-12T10:06:42.748Z,89.56
2022-12-12T10:07:42.725Z,89.70
2022-12-12T10:08:42.710Z,89.66
2022-12-12T10:09:42.706Z,89.34
2022-12-12T10:10:42.720Z,89.28
2022-12-12T10:11:42.684Z,89.39
2022-12-12T10:12:42.671Z,89.81
2022-12-12T10:13:42.667Z,90.23
2022-12-12T10:14:42.638Z,90.55
2022-12-12T10:15:42.635Z,90.45
2022-12-12T10:16:42.643Z,90.45
2022-12-12T10:17:42.593Z,90.62
2022-12-12T10:18:42.587Z,90.79
2022-12-12T10:19:42.572Z,90.79
2022-12-12T10:20:42.563Z,90.79
2022-12-12T10:21:42.548Z,90.37
2022-12-12T10:22:42.539Z,89.94
2022-12-12T10:23:42.517Z,90.05
2022-12-12T10:24:42.512Z,90.26
2022-12-12T10:25:42.494Z,90.47
2022-12-12T10:26:42.518Z,90.69
2022-12-12T10:27:42.477Z,90.47
2022-12-12T10:28:42.467Z,90.26
2022-12-12T10:29:42.451Z,90.26
2022-12-12T10:30:42.433Z,90.16
2022-12-12T10:31:42.506Z,90.37
2022-12-12T10:32:42.407Z,90.37
2022-12-12T10:33:42.399Z,89.84
2022-12-12T10:34:42.402Z,89.73
2022-12-12T10:35:42.368Z,89.69
2022-12-12T10:36:42.364Z,89.69
2022-12-12T10:37:42.339Z,89.79
2022-12-12T10:38:42.334Z,89.90
2022-12-12T10:39:42.315Z,89.84
2022-12-12T10:40:42.302Z,89.79
2022-12-12T10:41:42.293Z,89.90
2022-12-12T10:42:42.305Z,89.73
2022-12-12T10:43:42.275Z,89.62
2022-12-12T10:44:47.065Z,89.62
2022-12-12T10:45:42.320Z,89.94
2022-12-12T10:46:42.323Z,90.26
2022-12-12T10:47:42.206Z,90.37
2022-12-12T10:48:42.197Z,90.47
2022-12-12T10:49:42.209Z,90.69
2022-12-12T10:50:42.171Z,91.11
2022-12-12T10:51:42.162Z,91.32
2022-12-12T10:52:42.148Z,91.71
2022-12-12T10:53:42.155Z,91.81
2022-12-12T10:54:42.122Z,91.71
2022-12-12T10:55:42.106Z,91.92
2022-12-12T10:56:42.101Z,92.02
2022-12-12T10:57:42.088Z,92.09
2022-12-12T10:58:42.121Z,91.98
2022-12-12T10:59:42.076Z,91.77
2022-12-12T11:00:42.131Z,91.41
2022-12-12T11:02:11.585Z,91.41
2022-12-12T11:02:43.162Z,91.41
2022-12-12T11:03:42.082Z,91.16
2022-12-12T11:04:41.991Z,90.95
2022-12-12T11:05:41.986Z,90.84
2022-12-12T11:06:41.973Z,90.27
2022-12-12T11:07:41.953Z,89.95
2022-12-12T11:08:41.940Z,89.91
2022-12-12T11:09:41.932Z,89.70
2022-12-12T11:10:41.920Z,89.59
2022-12-12T11:11:41.902Z,89.06
2022-12-12T11:12:41.888Z,88.53
2022-12-12T11:13:41.885Z,88.43
2022-12-12T11:14:41.904Z,88.64
2022-12-12T11:15:41.855Z,88.85
2022-12-12T11:16:41.904Z,89.17
2022-12-12T11:17:41.817Z,89.21
2022-12-12T11:18:41.809Z,89.38
2022-12-12T11:19:41.785Z,89.49
2022-12-12T11:20:41.783Z,89.45
2022-12-12T11:21:41.775Z,89.45
2022-12-12T11:22:41.756Z,89.40
2022-12-12T11:23:41.750Z,89.09
2022-12-12T11:24:41.730Z,88.42
2022-12-12T11:25:41.725Z,87.78
2022-12-12T11:26:41.706Z,87.04
2022-12-12T11:27:41.698Z,86.83
2022-12-12T11:28:41.690Z,86.93
2022-12-12T11:29:41.676Z,86.61
2022-12-12T11:30:41.690Z,86.61
2022-12-12T11:31:41.718Z,86.93
2022-12-12T11:32:41.628Z,86.93
2022-12-12T11:33:41.623Z,86.58
2022-12-12T11:34:41.609Z,86.36
2022-12-12T11:35:47.286Z,86.36
2022-12-12T11:36:42.617Z,86.36
2022-12-12T11:37:41.571Z,86.26
2022-12-12T11:38:41.557Z,86.01
2022-12-12T11:39:41.544Z,85.52
2022-12-12T11:40:41.532Z,85.63
2022-12-12T11:41:41.514Z,85.38
2022-12-12T11:42:41.513Z,85.48
2022-12-12T11:43:41.482Z,85.80
2022-12-12T11:44:41.481Z,86.11
2022-12-12T11:45:41.533Z,86.22
2022-12-12T11:46:41.477Z,86.54
2022-12-12T11:47:41.451Z,86.96
2022-12-12T11:48:41.433Z,86.65
2022-12-12T11:49:41.411Z,86.33
2022-12-12T11:50:41.395Z,85.84
2022-12-12T11:51:41.384Z,85.91
2022-12-12T11:52:41.375Z,86.26
2022-12-12T11:53:41.371Z,86.22
2022-12-12T11:54:41.351Z,86.18
2022-12-12T11:55:41.338Z,86.40
2022-12-12T11:56:41.329Z,86.18
2022-12-12T11:57:41.311Z,85.13
2022-12-12T11:58:41.307Z,85.02
2022-12-12T11:59:41.295Z,85.44
2022-12-12T12:00:41.273Z,85.23
2022-12-12T12:01:41.273Z,85.66
2022-12-12T12:02:41.300Z,85.34
2022-12-12T12:03:41.310Z,85.76
2022-12-12T12:04:41.298Z,86.08
2022-12-12T12:05:41.216Z,85.55
2022-12-12T12:06:41.209Z,85.86
2022-12-12T12:07:41.186Z,85.86
2022-12-12T12:08:41.182Z,85.76
2022-12-12T12:09:41.160Z,85.76
2022-12-12T12:10:41.155Z,85.76
2022-12-12T12:11:41.141Z,85.80
2022-12-12T12:12:41.121Z,86.01
2022-12-12T12:13:41.117Z,85.80
2022-12-12T12:14:41.110Z,85.91
2022-12-12T12:15:41.092Z,85.91
2022-12-12T12:16:41.114Z,86.36
2022-12-12T12:17:41.057Z,86.68
2022-12-12T12:18:41.083Z,86.36
2022-12-12T12:19:41.039Z,86.47
2022-12-12T12:20:41.023Z,86.61
2022-12-12T12:21:41.015Z,86.83
2022-12-12T12:22:40.996Z,87.04
2022-12-12T12:23:44.165Z,87.00
2022-12-12T12:24:40.970Z,87.46
2022-12-12T12:25:40.957Z,87.57
2022-12-12T12:26:40.949Z,87.46
2022-12-12T12:27:40.938Z,87.57
2022-12-12T12:28:40.918Z,87.53
2022-12-12T12:29:40.915Z,87.53
2022-12-12T12:30:40.921Z,87.21
2022-12-12T12:31:40.887Z,87.00
2022-12-12T12:32:40.882Z,87.00
2022-12-12T12:33:40.860Z,87.10
2022-12-12T12:34:40.870Z,87.21
2022-12-12T12:35:40.831Z,87.10
2022-12-12T12:36:40.816Z,86.96
2022-12-12T12:37:40.805Z,87.13
2022-12-12T12:38:40.808Z,87.24
2022-12-12T12:39:40.780Z,87.07
2022-12-12T12:40:40.772Z,87.24
2022-12-12T12:41:40.759Z,87.34
2022-12-12T12:42:46.230Z,86.92
2022-12-12T12:43:41.771Z,86.92
2022-12-12T12:44:40.721Z,86.92
2022-12-12T12:45:40.703Z,87.03
2022-12-12T12:46:40.698Z,86.99
2022-12-12T12:47:40.683Z,86.82
2022-12-12T12:48:40.680Z,86.71
2022-12-12T12:49:40.661Z,86.50
2022-12-12T12:50:40.663Z,86.60
2022-12-12T12:51:45.455Z,86.82
2022-12-12T12:52:41.661Z,86.75